Time;durP1;ratioP1;P1;durP2;ratioP2;P2;SDS_P1;SDS_P2;PMS_P1;PMS_P2;Temp;Humidity;BMP_temperature;BMP_pressure;BME280_temperature;BME280_humidity;BME280_pressure;Samples;Min_cycle;Max_cycle;Signal;HPM_P1;HPM_P2
2022/06/28 00:01:59;;;;;;;13.40;6.92;;;;;;;21.24;65.21;101256.14;1689994;83;21056;-87
2022/06/28 00:04:28;;;;;;;11.35;7.03;;;;;;;21.20;65.30;101262.44;1659603;84;21123;-88
2022/06/28 00:06:58;;;;;;;10.23;6.87;;;;;;;21.16;65.43;101264.25;1686007;84;20988;-87
2022/06/28 00:09:24;;;;;;;11.85;7.60;;;;;;;21.13;65.45;101258.92;1687138;81;21060;-87
2022/06/28 00:11:52;;;;;;;11.80;7.58;;;;;;;21.08;65.49;101257.64;1711671;82;21105;-87
2022/06/28 00:17:10;;;;;;;11.95;6.62;;;;;;;20.99;65.67;101267.11;1701273;82;22527;-87
2022/06/28 00:19:37;;;;;;;12.30;7.33;;;;;;;20.94;65.79;101265.80;1718544;82;21070;-87
2022/06/28 00:22:05;;;;;;;12.78;6.58;;;;;;;20.92;65.85;101270.27;1704184;82;22529;-87
2022/06/28 00:24:32;;;;;;;10.60;7.42;;;;;;;20.88;65.97;101267.66;1705448;82;21596;-88
2022/06/28 00:26:59;;;;;;;11.22;7.70;;;;;;;20.85;66.10;101263.66;1704732;82;21098;-88
2022/06/28 00:29:26;;;;;;;10.30;7.00;;;;;;;20.84;66.13;101266.80;1694710;82;21748;-87
2022/06/28 00:31:53;;;;;;;10.20;7.37;;;;;;;20.81;66.25;101260.13;1715816;82;20982;-87
2022/06/28 00:34:19;;;;;;;13.08;6.60;;;;;;;20.78;66.32;101262.39;1711278;82;21572;-87
2022/06/28 00:36:54;;;;;;;8.95;6.97;;;;;;;20.75;66.36;101263.74;1725996;82;22193;-88
2022/06/28 00:39:19;;;;;;;12.07;7.12;;;;;;;20.73;66.48;101260.20;1711824;82;22212;-88
2022/06/28 00:41:46;;;;;;;13.55;7.33;;;;;;;20.72;66.58;101266.47;1705669;82;22593;-87
2022/06/28 00:44:13;;;;;;;8.55;6.60;;;;;;;20.71;66.61;101267.81;1706973;82;21023;-88
2022/06/28 00:46:40;;;;;;;13.20;7.45;;;;;;;20.69;66.66;101273.63;1708391;82;21083;-88
2022/06/28 00:49:09;;;;;;;12.60;7.17;;;;;;;20.68;66.73;101274.05;1705010;82;21344;-89
2022/06/28 00:51:38;;;;;;;13.25;7.85;;;;;;;20.65;66.71;101278.57;1705605;82;21078;-89
2022/06/28 00:54:05;;;;;;;12.03;7.53;;;;;;;20.64;66.75;101279.45;1717043;82;21711;-88
2022/06/28 00:56:32;;;;;;;15.45;7.17;;;;;;;20.61;66.78;101276.38;1695858;82;21053;-88
2022/06/28 00:59:01;;;;;;;10.48;7.65;;;;;;;20.57;66.85;101279.91;1700431;82;21042;-88
2022/06/28 01:01:28;;;;;;;11.73;7.60;;;;;;;20.56;66.99;101280.37;1718508;83;21540;-88
2022/06/28 01:03:55;;;;;;;10.88;6.90;;;;;;;20.54;67.03;101279.50;1708163;81;21122;-88
2022/06/28 01:06:21;;;;;;;13.98;7.47;;;;;;;20.53;67.09;101276.40;1716169;82;21740;-88
2022/06/28 01:08:50;;;;;;;9.93;7.12;;;;;;;20.53;67.13;101277.73;1671535;84;21087;-89
2022/06/28 01:11:19;;;;;;;9.78;7.58;;;;;;;20.50;67.22;101280.42;1685099;83;21057;-87
2022/06/28 01:13:56;;;;;;;12.40;7.80;;;;;;;20.49;67.29;101277.75;1705225;83;21094;-88
2022/06/28 01:16:25;;;;;;;15.35;7.42;;;;;;;20.49;67.35;101281.77;1706557;83;21133;-88
2022/06/28 01:18:51;;;;;;;11.65;7.20;;;;;;;20.47;67.47;101276.42;1726396;83;21691;-88
2022/06/28 01:21:18;;;;;;;12.90;6.80;;;;;;;20.46;67.51;101267.98;1711503;83;21517;-88
2022/06/28 01:23:46;;;;;;;8.08;6.97;;;;;;;20.45;67.58;101267.53;1710413;83;21482;-88
2022/06/28 01:26:14;;;;;;;12.63;7.28;;;;;;;20.43;67.61;101265.78;1722208;83;21078;-88
2022/06/28 01:28:42;;;;;;;14.33;8.10;;;;;;;20.43;67.69;101271.13;1714365;83;21012;-88
2022/06/28 01:31:08;;;;;;;14.18;7.47;;;;;;;20.41;67.77;101272.47;1698982;83;21715;-88
2022/06/28 01:33:38;;;;;;;9.63;7.20;;;;;;;20.41;67.84;101271.59;1710704;82;21039;-88
2022/06/28 01:36:08;;;;;;;10.08;6.92;;;;;;;20.40;67.92;101276.02;1719769;83;21027;-88
2022/06/28 01:38:36;;;;;;;12.05;8.13;;;;;;;20.38;67.94;101275.16;1708795;82;22384;-88
2022/06/28 01:41:02;;;;;;;10.63;7.37;;;;;;;20.36;67.98;101273.86;1724256;81;21072;-88
2022/06/28 01:43:32;;;;;;;10.23;7.90;;;;;;;20.35;68.03;101270.73;1718077;83;21713;-88
2022/06/28 01:46:03;;;;;;;13.58;7.50;;;;;;;20.33;68.06;101267.18;1681530;83;21516;-88
2022/06/28 01:48:28;;;;;;;8.90;7.70;;;;;;;20.31;68.08;101261.38;1695403;82;21103;-88
2022/06/28 01:50:55;;;;;;;12.18;8.10;;;;;;;20.29;68.17;101258.75;1712666;83;21090;-88
2022/06/28 01:53:27;;;;;;;12.95;7.95;;;;;;;20.29;68.19;101255.16;1706905;82;21165;-88
2022/06/28 01:55:52;;;;;;;10.00;7.35;;;;;;;20.26;68.23;101254.75;1679895;82;22484;-88
2022/06/28 01:58:19;;;;;;;8.70;7.75;;;;;;;20.27;68.26;101262.31;1719831;82;21038;-88
2022/06/28 02:00:51;;;;;;;8.55;7.45;;;;;;;20.24;68.22;101263.23;1708334;82;21110;-88
2022/06/28 02:03:21;;;;;;;10.70;7.35;;;;;;;20.22;68.23;101272.17;1724000;82;21346;-89
2022/06/28 02:05:55;;;;;;;11.50;8.00;;;;;;;20.24;68.31;101277.05;1731350;82;21071;-88
2022/06/28 02:11:03;;;;;;;8.08;7.28;;;;;;;20.22;68.24;101273.05;1647734;82;21073;-88
2022/06/28 02:13:31;;;;;;;11.95;8.25;;;;;;;20.23;68.24;101274.80;1719242;81;21084;-88
2022/06/28 02:15:59;;;;;;;8.58;7.67;;;;;;;20.24;68.26;101276.59;1731846;82;21153;-88
2022/06/28 02:18:30;;;;;;;11.08;7.87;;;;;;;20.26;68.26;101280.14;1694719;83;21090;-88
2022/06/28 02:20:58;;;;;;;13.28;7.05;;;;;;;20.27;68.30;101277.02;1723493;82;21782;-88
2022/06/28 02:23:27;;;;;;;13.72;7.95;;;;;;;20.27;68.31;101280.59;1730917;82;21113;-88
2022/06/28 02:25:57;;;;;;;9.03;7.03;;;;;;;20.30;68.33;101278.34;1730581;81;21046;-88
2022/06/28 02:28:30;;;;;;;9.53;6.90;;;;;;;20.32;68.35;101280.55;1696763;82;21089;-88
2022/06/28 02:30:59;;;;;;;10.15;7.08;;;;;;;20.35;68.31;101285.89;1730814;81;21090;-88
2022/06/28 02:33:31;;;;;;;8.58;7.03;;;;;;;20.36;68.35;101284.55;1710540;82;21767;-88
2022/06/28 02:41:29;;;;;;;11.70;7.60;;;;;;;20.43;68.33;101277.81;1707572;82;21080;-86
2022/06/28 02:43:58;;;;;;;11.05;7.42;;;;;;;20.46;68.33;101284.45;1709953;82;21045;-87
2022/06/28 02:46:25;;;;;;;18.65;7.92;;;;;;;20.51;68.32;101283.98;1708846;82;22349;-86
2022/06/28 02:48:52;;;;;;;9.30;7.30;;;;;;;20.53;68.25;101283.09;1720801;82;21044;-86
2022/06/28 02:51:20;;;;;;;10.43;7.87;;;;;;;20.54;68.18;101284.84;1727544;82;22179;-87
2022/06/28 02:53:48;;;;;;;13.38;8.63;;;;;;;20.57;68.20;101282.16;1726700;82;21074;-87
2022/06/28 02:56:14;;;;;;;9.73;8.13;;;;;;;20.59;68.13;101284.83;1724735;82;21109;-87
2022/06/28 02:58:42;;;;;;;14.40;9.23;;;;;;;20.63;68.12;101284.35;1724440;82;21816;-87
2022/06/28 03:01:14;;;;;;;11.53;7.45;;;;;;;20.65;68.11;101283.46;1729071;82;21050;-87
2022/06/28 03:03:39;;;;;;;11.12;8.10;;;;;;;20.70;68.05;101286.09;1731981;82;21118;-88
2022/06/28 03:06:06;;;;;;;9.55;7.10;;;;;;;20.75;68.05;101290.50;1731972;82;21046;-88
2022/06/28 03:08:35;;;;;;;10.48;7.40;;;;;;;20.81;68.03;101280.66;1695409;83;21102;-88
2022/06/28 03:11:02;;;;;;;10.85;7.62;;;;;;;20.85;67.92;101280.59;1729341;82;21798;-88
2022/06/28 03:13:29;;;;;;;12.98;7.67;;;;;;;20.92;67.88;101274.75;1716770;82;20970;-87
2022/06/28 03:15:55;;;;;;;12.37;7.75;;;;;;;20.97;67.86;101272.47;1702362;82;21072;-87
2022/06/28 03:18:22;;;;;;;12.18;8.50;;;;;;;21.06;67.82;101272.84;1696345;82;21103;-87
2022/06/28 03:20:51;;;;;;;11.90;7.70;;;;;;;21.17;67.75;101275.38;1730965;81;21419;-87
2022/06/28 03:23:17;;;;;;;13.53;8.08;;;;;;;21.27;67.61;101278.41;1731313;81;21753;-87
2022/06/28 03:25:44;;;;;;;11.80;8.45;;;;;;;21.40;67.55;101269.80;1711919;82;21069;-88
2022/06/28 03:28:11;;;;;;;11.18;8.38;;;;;;;21.54;67.39;101272.33;1732383;81;21501;-88
2022/06/28 03:30:38;;;;;;;12.93;8.15;;;;;;;21.80;67.65;101273.34;1713818;82;21652;-88
2022/06/28 03:33:06;;;;;;;10.68;7.97;;;;;;;22.60;68.44;101272.20;1729954;81;21074;-88
2022/06/28 03:35:33;;;;;;;11.38;8.05;;;;;;;23.44;67.35;101272.50;1716312;81;21788;-87
2022/06/28 03:37:59;;;;;;;11.20;8.88;;;;;;;24.40;66.81;101269.95;1722563;82;21062;-88
2022/06/28 03:40:26;;;;;;;11.68;7.50;;;;;;;24.91;64.11;101268.70;1714393;82;21083;-88
2022/06/28 03:42:56;;;;;;;11.70;6.97;;;;;;;24.71;62.84;101253.06;1710113;82;21070;-87
2022/06/28 03:45:25;;;;;;;8.13;7.12;;;;;;;24.66;62.45;101267.56;1724391;82;21050;-88
2022/06/28 03:47:51;;;;;;;11.78;7.60;;;;;;;24.64;62.23;101261.77;1731527;82;22490;-88
2022/06/28 03:50:18;;;;;;;10.80;6.45;;;;;;;24.75;61.87;101263.30;1724081;82;21039;-88
2022/06/28 03:52:48;;;;;;;11.35;6.80;;;;;;;25.04;61.95;101258.50;1730970;82;21078;-88
2022/06/28 03:55:13;;;;;;;8.13;6.25;;;;;;;25.71;62.05;101246.25;1729569;82;21497;-88
2022/06/28 03:57:47;;;;;;;11.10;6.72;;;;;;;26.76;61.38;101251.92;1726452;82;21054;-89
2022/06/28 04:00:13;;;;;;;9.00;6.33;;;;;;;28.11;60.41;101248.75;1711590;82;21878;-89
2022/06/28 04:02:51;;;;;;;9.95;6.33;;;;;;;29.43;58.63;101246.77;1727970;82;21050;-89
2022/06/28 04:05:18;;;;;;;8.35;6.28;;;;;;;30.60;56.66;101233.91;1721456;82;21627;-90
2022/06/28 04:08:01;;;;;;;9.30;6.28;;;;;;;31.46;54.56;101235.30;1712378;81;21094;-88
2022/06/28 04:10:17;;;;;;;10.03;5.65;;;;;;;32.19;53.37;101238.06;1713311;82;21634;-89
2022/06/28 04:12:44;;;;;;;11.65;5.90;;;;;;;33.04;51.72;101242.11;1729348;81;21788;-90
2022/06/28 04:15:13;;;;;;;9.25;5.60;;;;;;;33.79;50.18;101240.13;1665760;84;21025;-87
2022/06/28 04:17:42;;;;;;;10.13;5.20;;;;;;;34.48;48.67;101237.40;1652745;84;21645;-87
2022/06/28 04:20:14;;;;;;;8.40;5.90;;;;;;;35.24;47.37;101238.08;1671555;85;21106;-88
2022/06/28 04:22:59;;;;;;;9.63;5.50;;;;;;;36.04;46.07;101242.84;1654165;85;21086;-90
2022/06/28 04:25:34;;;;;;;9.00;5.83;;;;;;;36.74;44.30;101242.12;1714953;82;21564;-89
2022/06/28 04:28:11;;;;;;;9.85;5.12;;;;;;;37.27;43.16;101238.91;1712836;82;21699;-89
2022/06/28 04:33:48;;;;;;;7.90;5.25;;;;;;;38.40;40.86;101243.78;1641907;86;21322;-91
2022/06/28 04:36:32;;;;;;;9.83;5.55;;;;;;;38.99;39.50;101244.30;1601759;86;21116;-90
2022/06/28 04:39:13;;;;;;;8.40;5.10;;;;;;;39.36;38.14;101243.27;1616562;88;21153;-90
2022/06/28 04:41:44;;;;;;;6.90;5.08;;;;;;;39.74;37.47;101243.60;1653486;86;22325;-87
2022/06/28 04:44:16;;;;;;;7.28;4.35;;;;;;;40.10;36.15;101240.77;1631314;86;21112;-88
2022/06/28 04:46:47;;;;;;;6.85;4.80;;;;;;;40.58;35.63;101241.34;1652144;85;21626;-89
2022/06/28 04:49:17;;;;;;;8.55;5.12;;;;;;;41.09;34.64;101242.03;1654690;86;21989;-89
2022/06/28 04:51:50;;;;;;;7.10;4.90;;;;;;;41.55;33.82;101233.89;1690347;82;23206;-89
2022/06/28 04:54:22;;;;;;;8.55;4.42;;;;;;;41.83;32.92;101237.55;1718657;82;21324;-89
2022/06/28 04:56:53;;;;;;;8.28;4.28;;;;;;;42.18;32.19;101223.95;1703562;81;21533;-89
2022/06/28 04:59:22;;;;;;;6.40;4.75;;;;;;;42.52;31.44;101240.23;1735903;82;21046;-89
2022/06/28 05:01:49;;;;;;;4.85;3.77;;;;;;;42.69;30.70;101237.63;1721661;82;21093;-90
2022/06/28 05:04:23;;;;;;;10.55;4.53;;;;;;;42.86;30.27;101241.39;1696011;82;21604;-89
2022/06/28 05:06:53;;;;;;;10.08;4.30;;;;;;;43.16;29.75;101242.84;1681703;83;22146;-89
2022/06/28 05:09:21;;;;;;;16.05;4.83;;;;;;;43.23;29.23;101238.88;1689780;82;21076;-89
2022/06/28 05:11:49;;;;;;;10.68;4.85;;;;;;;43.30;28.83;101246.39;1697919;81;21096;-89
2022/06/28 05:14:20;;;;;;;7.03;4.22;;;;;;;42.95;28.35;101244.61;1725520;82;21155;-87
2022/06/28 05:16:49;;;;;;;11.33;4.05;;;;;;;42.65;28.33;101244.48;1664946;84;21782;-88
2022/06/28 05:19:14;;;;;;;8.30;4.00;;;;;;;42.46;28.29;101242.23;1712578;82;21088;-87
2022/06/28 05:21:43;;;;;;;8.78;4.55;;;;;;;42.64;28.30;101233.93;1719920;81;21100;-88
2022/06/28 05:24:10;;;;;;;6.80;4.20;;;;;;;42.85;27.90;101234.95;1725538;82;21608;-88
2022/06/28 05:26:37;;;;;;;4.92;3.85;;;;;;;42.52;27.31;101239.38;1692002;81;21096;-88
2022/06/28 05:29:06;;;;;;;12.82;4.22;;;;;;;41.36;27.53;101234.33;1735718;82;22595;-88
2022/06/28 05:31:33;;;;;;;6.75;4.17;;;;;;;40.18;27.89;101235.40;1709789;81;21060;-88
2022/06/28 05:34:03;;;;;;;6.65;3.70;;;;;;;38.87;28.45;101231.08;1732112;82;21081;-88
2022/06/28 05:36:34;;;;;;;7.17;4.28;;;;;;;37.51;29.24;101231.92;1691615;84;21103;-87
2022/06/28 05:39:01;;;;;;;7.97;4.87;;;;;;;36.15;30.21;101231.94;1724574;82;21590;-87
2022/06/28 05:41:31;;;;;;;9.18;4.65;;;;;;;35.07;31.26;101220.59;1706089;81;22344;-87
2022/06/28 05:43:58;;;;;;;9.43;4.78;;;;;;;34.21;32.20;101225.12;1721517;82;21595;-87
2022/06/28 05:46:31;;;;;;;8.55;4.95;;;;;;;33.57;33.32;101228.81;1694396;81;21084;-87
2022/06/28 05:48:57;;;;;;;;;;;;;;;33.16;33.94;101232.31;1706209;82;21087;-87
2022/06/28 05:51:38;;;;;;;8.13;4.65;;;;;;;32.67;34.59;101228.86;1724813;82;20201;-87
2022/06/28 05:54:09;;;;;;;6.95;5.03;;;;;;;32.14;35.18;101239.22;1712541;82;21557;-87
2022/06/28 05:56:40;;;;;;;8.73;5.35;;;;;;;31.58;35.90;101233.27;1728272;81;21136;-86
2022/06/28 05:59:05;;;;;;;10.10;4.80;;;;;;;31.13;36.63;101222.56;1748654;82;21026;-87
2022/06/28 06:01:32;;;;;;;6.75;4.65;;;;;;;30.79;37.45;101226.16;1748791;81;20990;-87
2022/06/28 06:03:59;;;;;;;7.83;6.00;;;;;;;30.52;38.23;101229.36;1747928;81;21002;-87
2022/06/28 06:06:25;;;;;;;11.53;5.55;;;;;;;30.28;38.68;101224.65;1745143;81;21732;-87
2022/06/28 06:08:56;;;;;;;10.23;5.58;;;;;;;30.04;39.13;101227.61;1726878;81;21116;-87
2022/06/28 06:11:21;;;;;;;14.73;5.58;;;;;;;29.82;39.67;101228.25;1719113;81;21092;-87
2022/06/28 06:13:49;;;;;;;6.60;4.72;;;;;;;29.64;40.11;101221.86;1697013;83;21075;-87
2022/06/28 06:16:25;;;;;;;8.50;5.55;;;;;;;29.45;40.61;101229.50;1718152;81;21088;-87
2022/06/28 06:18:52;;;;;;;12.23;5.70;;;;;;;29.20;41.02;101227.50;1733199;82;21777;-87
2022/06/28 06:21:19;;;;;;;9.50;5.50;;;;;;;29.12;41.65;101221.04;1703126;83;21741;-87
2022/06/28 06:23:46;;;;;;;6.00;5.30;;;;;;;29.14;42.02;101229.14;1733094;82;21120;-87
2022/06/28 06:26:13;;;;;;;8.23;6.00;;;;;;;29.16;42.05;101230.81;1707964;83;21334;-87
2022/06/28 06:28:39;;;;;;;5.95;5.35;;;;;;;29.20;42.09;101234.27;1733036;82;22111;-87
2022/06/28 06:31:08;;;;;;;7.22;5.45;;;;;;;29.29;42.09;101245.19;1704368;81;21753;-87
2022/06/28 06:33:35;;;;;;;10.08;5.62;;;;;;;29.45;42.16;101242.16;1716445;81;21533;-87
2022/06/28 06:36:11;;;;;;;8.43;5.62;;;;;;;29.65;42.17;101257.03;1734625;82;21065;-87
2022/06/28 06:38:37;;;;;;;12.00;6.85;;;;;;;29.80;42.04;101258.66;1688369;83;22319;-87
2022/06/28 06:41:04;;;;;;;12.75;6.28;;;;;;;29.72;42.00;101256.28;1737182;81;20916;-87
2022/06/28 06:43:31;;;;;;;8.48;6.42;;;;;;;29.54;42.13;101265.27;1695403;83;23261;-87
2022/06/28 06:45:57;;;;;;;11.35;6.17;;;;;;;29.33;42.66;101261.23;1734262;82;22291;-86
2022/06/28 06:48:24;;;;;;;11.60;5.95;;;;;;;29.11;43.22;101258.56;1696107;83;21131;-87
2022/06/28 06:50:53;;;;;;;12.33;6.15;;;;;;;28.98;43.67;101260.06;1729560;82;21560;-87
2022/06/28 06:53:20;;;;;;;10.48;6.33;;;;;;;28.84;44.09;101265.61;1704112;83;21092;-87
2022/06/28 06:55:48;;;;;;;20.25;6.58;;;;;;;28.79;44.54;101265.41;1733996;81;21832;-87
2022/06/28 06:58:15;;;;;;;11.12;5.97;;;;;;;28.66;44.89;101259.17;1671487;84;21066;-87
2022/06/28 07:00:45;;;;;;;11.93;6.22;;;;;;;28.50;45.13;101267.02;1668793;84;22574;-87
2022/06/28 07:03:11;;;;;;;11.93;6.42;;;;;;;28.37;45.74;101264.41;1670210;84;21151;-87
2022/06/28 07:05:38;;;;;;;12.23;6.67;;;;;;;28.28;46.25;101267.49;1669453;84;21072;-87
2022/06/28 07:08:05;;;;;;;18.40;6.47;;;;;;;28.20;46.73;101262.88;1671934;84;22327;-87
2022/06/28 07:10:32;;;;;;;15.88;7.05;;;;;;;28.15;47.12;101267.59;1671536;84;21085;-86
2022/06/28 07:12:58;;;;;;;9.63;5.85;;;;;;;28.16;47.67;101276.13;1664531;84;22075;-87
2022/06/28 07:15:25;;;;;;;13.38;6.37;;;;;;;28.26;48.08;101281.09;1670669;84;21116;-87
2022/06/28 07:17:52;;;;;;;12.80;6.00;;;;;;;28.50;48.03;101281.04;1669251;84;21008;-87
2022/06/28 07:20:19;;;;;;;12.28;6.03;;;;;;;28.79;47.66;101279.82;1671352;84;22405;-87
2022/06/28 07:22:46;;;;;;;8.08;5.78;;;;;;;29.15;47.51;101277.87;1669740;85;21127;-86
2022/06/28 07:25:13;;;;;;;12.60;6.05;;;;;;;29.48;47.15;101270.98;1669569;84;21124;-87
2022/06/28 07:27:40;;;;;;;11.12;6.15;;;;;;;29.72;46.66;101273.04;1672343;84;21096;-87
2022/06/28 07:30:08;;;;;;;15.45;6.47;;;;;;;29.74;46.33;101281.53;1667858;84;21917;-86
2022/06/28 07:32:35;;;;;;;8.03;6.40;;;;;;;29.66;46.37;101293.20;1671689;84;21795;-89
2022/06/28 07:35:01;;;;;;;8.65;5.60;;;;;;;29.50;46.40;101293.01;1668320;84;21085;-87
2022/06/28 07:37:30;;;;;;;8.73;6.20;;;;;;;29.26;46.39;101302.67;1671586;84;21144;-87
2022/06/28 07:39:57;;;;;;;8.80;6.35;;;;;;;29.03;46.46;101304.98;1665283;84;21064;-86
2022/06/28 07:42:24;;;;;;;8.58;6.03;;;;;;;28.85;46.87;101300.36;1663827;84;22101;-87
2022/06/28 07:44:51;;;;;;;12.43;6.20;;;;;;;28.68;47.25;101303.78;1658384;84;21857;-86
2022/06/28 07:47:17;;;;;;;11.83;6.10;;;;;;;28.49;47.67;101311.31;1662398;84;21065;-87
2022/06/28 07:52:36;;;;;;;12.82;7.05;;;;;;;28.23;48.42;101311.45;1669441;85;21093;-86
2022/06/28 07:55:05;;;;;;;10.10;6.72;;;;;;;28.10;48.75;101314.67;1673051;84;21112;-87
2022/06/28 07:57:32;;;;;;;12.23;6.65;;;;;;;27.97;49.11;101312.03;1673651;82;21740;-87
2022/06/28 07:59:58;;;;;;;11.12;7.03;;;;;;;27.89;49.50;101312.33;1673749;84;21580;-86
2022/06/28 08:02:25;;;;;;;8.10;6.55;;;;;;;27.82;49.73;101316.17;1687964;84;21138;-89
2022/06/28 08:04:52;;;;;;;11.73;7.20;;;;;;;27.77;49.95;101322.22;1717802;81;21076;-87
2022/06/28 08:07:19;;;;;;;11.35;8.00;;;;;;;27.72;50.12;101328.27;1729396;82;21221;-88
2022/06/28 08:09:53;;;;;;;14.45;7.70;;;;;;;27.67;50.45;101323.05;1731893;82;22549;-87
2022/06/28 08:12:20;;;;;;;12.28;7.58;;;;;;;27.66;50.59;101323.97;1700616;83;21092;-87
2022/06/28 08:14:48;;;;;;;17.77;6.87;;;;;;;27.67;50.73;101324.39;1703815;82;21090;-87
2022/06/28 08:17:15;;;;;;;10.80;7.87;;;;;;;27.69;50.44;101339.22;1720066;82;21099;-87
2022/06/28 08:19:48;;;;;;;13.70;7.87;;;;;;;27.79;50.66;101346.52;1743124;80;21093;-87
2022/06/28 08:22:14;;;;;;;13.22;7.47;;;;;;;27.93;50.71;101349.63;1740520;82;22377;-92
2022/06/28 08:24:44;;;;;;;11.60;7.28;;;;;;;28.11;50.45;101349.38;1738384;82;21017;-91
2022/06/28 08:27:11;;;;;;;14.78;6.85;;;;;;;28.35;50.25;101350.23;1735614;81;21034;-91
2022/06/28 08:29:37;;;;;;;8.43;6.97;;;;;;;28.60;49.95;101343.38;1723134;82;21095;-91
2022/06/28 08:32:05;;;;;;;10.50;6.85;;;;;;;28.83;49.53;101346.51;1736120;82;21507;-91
2022/06/28 08:34:31;;;;;;;11.55;7.40;;;;;;;28.97;49.04;101354.05;1741704;80;22508;-90
2022/06/28 08:36:58;;;;;;;8.35;6.45;;;;;;;29.12;48.76;101352.98;1720531;81;21090;-91
2022/06/28 08:39:25;;;;;;;7.33;6.45;;;;;;;29.22;48.47;101356.60;1739003;80;21080;-90
2022/06/28 08:41:52;;;;;;;11.80;7.58;;;;;;;29.37;48.27;101362.31;1744218;80;21042;-91
2022/06/28 08:44:18;;;;;;;9.08;6.78;;;;;;;29.40;47.64;101363.55;1742773;81;21108;-90
2022/06/28 08:46:51;;;;;;;9.23;6.72;;;;;;;29.43;47.68;101371.52;1740291;80;21827;-92
2022/06/28 08:49:52;;;;;;;8.03;6.80;;;;;;;29.57;47.63;101362.80;1746558;81;21278;-93
2022/06/28 08:52:20;;;;;;;10.05;6.55;;;;;;;29.85;47.57;101361.97;1744970;81;21873;-92
2022/06/28 08:54:47;;;;;;;11.10;6.83;;;;;;;30.28;47.22;101350.92;1719611;82;21583;-92
2022/06/28 08:57:13;;;;;;;9.20;7.17;;;;;;;30.59;46.52;101344.89;1732547;81;21875;-92
2022/06/28 08:59:43;;;;;;;6.87;6.00;;;;;;;30.84;45.97;101351.84;1713364;82;21777;-93
2022/06/28 09:02:09;;;;;;;13.70;6.83;;;;;;;31.08;45.59;101347.48;1722925;82;21038;-92
2022/06/28 09:04:36;;;;;;;11.70;8.73;;;;;;;31.22;44.95;101348.14;1660158;85;21110;-93
2022/06/28 09:07:03;;;;;;;16.67;6.90;;;;;;;31.24;44.40;101348.45;1653116;84;21110;-92
2022/06/28 09:09:30;;;;;;;11.90;6.78;;;;;;;31.08;44.21;101342.91;1676017;84;21127;-92
2022/06/28 09:11:59;;;;;;;7.80;6.95;;;;;;;30.89;44.20;101347.52;1674525;84;21828;-92
2022/06/28 09:14:31;;;;;;;12.23;7.03;;;;;;;30.90;44.54;101350.65;1672080;83;21086;-92
2022/06/28 09:16:58;;;;;;;9.55;7.17;;;;;;;31.03;44.27;101349.09;1680927;84;21105;-92
2022/06/28 09:19:35;;;;;;;10.25;6.35;;;;;;;30.93;44.03;101345.97;1672344;85;21639;-91
2022/06/28 09:22:06;;;;;;;9.88;6.80;;;;;;;31.05;44.33;101355.33;1673056;85;21135;-94
2022/06/28 09:24:32;;;;;;;8.63;6.03;;;;;;;31.30;44.00;101356.28;1652177;85;22908;-92
2022/06/28 09:27:06;;;;;;;11.00;7.97;;;;;;;31.55;43.68;101360.45;1678151;84;21128;-92
2022/06/28 09:29:49;;;;;;;7.05;6.25;;;;;;;31.68;43.39;101354.73;1664063;84;21129;-92
2022/06/28 09:32:16;;;;;;;12.23;6.97;;;;;;;31.81;43.29;101354.95;1720581;82;21066;-92
2022/06/28 09:34:53;;;;;;;14.55;6.70;;;;;;;32.04;43.09;101358.28;1710002;82;21695;-93
2022/06/28 09:37:58;;;;;;;12.80;7.42;;;;;;;32.27;42.77;101361.97;1716688;82;21751;-92
2022/06/28 09:40:29;;;;;;;8.25;6.78;;;;;;;32.55;42.46;101364.48;1710845;82;21055;-93
2022/06/28 09:43:14;;;;;;;8.70;6.45;;;;;;;32.81;41.88;101368.91;1727445;82;21608;-92
2022/06/28 09:45:47;;;;;;;8.35;6.17;;;;;;;32.82;41.47;101368.83;1722580;82;21645;-93
2022/06/28 09:48:17;;;;;;;11.65;6.87;;;;;;;32.76;41.36;101379.23;1723956;82;21042;-92
2022/06/28 09:50:44;;;;;;;13.68;7.47;;;;;;;32.74;41.47;101374.73;1681450;84;21657;-92
2022/06/28 09:53:14;;;;;;;11.50;7.40;;;;;;;32.83;41.55;101381.51;1692951;84;21118;-92
2022/06/28 09:55:39;;;;;;;8.18;7.40;;;;;;;32.80;41.10;101379.45;1727404;82;21090;-91
2022/06/28 09:58:06;;;;;;;7.50;6.75;;;;;;;32.70;41.18;101384.06;1717337;82;21051;-91
2022/06/28 10:00:35;;;;;;;10.58;7.50;;;;;;;32.62;41.23;101385.47;1708304;83;21062;-92
2022/06/28 10:03:02;;;;;;;8.05;7.25;;;;;;;32.68;41.37;101394.64;1724151;83;21719;-91
2022/06/28 10:05:29;;;;;;;12.98;8.20;;;;;;;32.82;41.24;101396.59;1697771;83;21125;-92
2022/06/28 10:07:56;;;;;;;8.15;7.20;;;;;;;32.92;41.08;101386.88;1718296;83;21153;-92
2022/06/28 10:10:24;;;;;;;10.78;7.78;;;;;;;32.93;40.90;101393.61;1706145;83;21051;-92
2022/06/28 10:15:53;;;;;;;11.90;8.95;;;;;;;32.33;40.82;101381.17;1695736;83;22376;-93
2022/06/28 10:18:21;;;;;;;13.13;8.05;;;;;;;31.96;41.22;101366.36;1695590;83;21058;-92
2022/06/28 10:20:48;;;;;;;12.33;8.28;;;;;;;31.78;41.82;101360.09;1683150;83;21078;-92
2022/06/28 10:23:30;;;;;;;16.95;9.65;;;;;;;31.61;41.87;101353.34;1705792;83;21063;-92
2022/06/28 10:26:07;;;;;;;;;;;;;;;31.33;42.26;101343.89;1691274;83;21125;-91
2022/06/28 10:28:37;;;;;;;17.60;10.75;;;;;;;30.97;42.92;101334.43;1678363;83;21591;-92
2022/06/28 10:31:29;;;;;;;18.98;13.25;;;;;;;30.75;43.10;101342.78;1692226;83;21813;-93
2022/06/28 10:33:58;;;;;;;11.78;10.05;;;;;;;30.42;43.52;101343.00;1676075;83;21078;-93
2022/06/28 10:36:28;;;;;;;15.63;10.00;;;;;;;30.13;43.95;101351.67;1707130;83;21048;-92
2022/06/28 10:39:12;;;;;;;10.93;9.28;;;;;;;29.92;44.60;101350.81;1697700;83;21517;-92
2022/06/28 10:41:51;;;;;;;14.03;9.80;;;;;;;30.01;45.08;101355.36;1702937;83;22600;-92
2022/06/28 10:44:26;;;;;;;10.68;9.68;;;;;;;30.22;45.06;101360.73;1675550;83;21025;-93
2022/06/28 10:47:10;;;;;;;12.55;9.75;;;;;;;30.28;45.04;101364.50;1685232;82;21502;-92
2022/06/28 10:49:56;;;;;;;13.30;9.45;;;;;;;30.32;45.10;101366.59;1703966;83;21411;-92
2022/06/28 10:52:34;;;;;;;10.30;8.40;;;;;;;30.15;45.17;101370.98;1668952;83;21080;-91
2022/06/28 10:55:18;;;;;;;13.38;8.30;;;;;;;30.11;45.65;101376.17;1655344;85;21734;-91
2022/06/28 10:57:46;;;;;;;13.20;8.88;;;;;;;30.04;45.60;101381.47;1690369;84;21048;-92
2022/06/28 11:00:23;;;;;;;15.03;10.03;;;;;;;29.76;45.81;101384.58;1697659;84;21072;-93
2022/06/28 11:02:56;;;;;;;15.80;9.13;;;;;;;29.52;46.12;101391.95;1685643;84;21065;-93
2022/06/28 11:05:30;;;;;;;13.32;8.08;;;;;;;29.26;46.69;101385.38;1705775;83;22011;-92
2022/06/28 11:08:01;;;;;;;16.32;7.97;;;;;;;29.21;47.11;101398.23;1668007;84;21723;-92
2022/06/28 11:10:28;;;;;;;11.70;7.65;;;;;;;29.19;47.16;101411.45;1665558;84;21081;-92
2022/06/28 11:13:15;;;;;;;11.53;8.18;;;;;;;28.96;47.19;101411.92;1670719;85;21003;-92
2022/06/28 11:15:42;;;;;;;8.63;7.72;;;;;;;28.80;47.58;101398.59;1692624;84;21022;-91
2022/06/28 11:18:16;;;;;;;11.68;8.40;;;;;;;28.84;47.98;101422.77;1695164;84;21079;-91
2022/06/28 11:20:45;;;;;;;12.10;7.72;;;;;;;28.62;47.84;101424.58;1697249;84;20981;-92
2022/06/28 11:23:30;;;;;;;12.58;7.58;;;;;;;28.23;48.46;101429.20;1704692;84;21447;-92
2022/06/28 11:28:59;;;;;;;12.50;8.23;;;;;;;27.80;49.48;101441.59;1689597;84;21635;-92
2022/06/28 11:31:27;;;;;;;;;;;;;;;27.64;50.04;101448.91;1683756;84;21128;-91
2022/06/28 11:33:59;;;;;;;17.77;9.35;;;;;;;27.47;50.68;101456.25;1675562;84;21767;-91
2022/06/28 11:36:33;;;;;;;15.20;8.80;;;;;;;27.17;51.03;101437.00;1694448;84;21001;-90
2022/06/28 11:39:07;;;;;;;11.55;8.43;;;;;;;26.91;51.92;101440.08;1691044;84;21049;-91
2022/06/28 11:41:35;;;;;;;16.82;10.08;;;;;;;26.48;52.77;101442.73;1684782;84;21158;-91
2022/06/28 11:44:02;;;;;;;19.52;10.78;;;;;;;26.16;53.97;101441.88;1689556;84;21048;-91
2022/06/28 11:46:28;;;;;;;19.12;8.98;;;;;;;25.76;54.75;101445.67;1694704;84;21759;-91
2022/06/28 11:48:57;;;;;;;22.82;9.80;;;;;;;25.56;55.67;101458.33;1668139;84;21097;-91
2022/06/28 11:51:31;;;;;;;16.97;9.58;;;;;;;25.44;56.78;101474.84;1688489;84;21079;-91
2022/06/28 11:54:05;;;;;;;14.78;10.70;;;;;;;25.41;57.57;101489.25;1659929;85;21043;-92